createdAt,value
2019-06-27T00:00:35.945Z,1016.5
2019-06-27T00:01:45.662Z,1016.59
2019-06-27T00:02:55.619Z,1016.5
2019-06-27T00:04:05.583Z,1016.52
2019-06-27T00:05:15.044Z,1016.49
2019-06-27T00:06:25.004Z,1016.45
2019-06-27T00:07:34.970Z,1016.51
2019-06-27T00:08:44.932Z,1016.45
2019-06-27T00:09:54.144Z,1016.44
2019-06-27T00:11:04.160Z,1016.53
2019-06-27T00:12:13.913Z,1016.49
2019-06-27T00:13:23.382Z,1016.57
2019-06-27T00:14:33.361Z,1016.53
2019-06-27T00:15:43.107Z,1016.59
2019-06-27T00:16:53.057Z,1016.6
2019-06-27T00:18:03.088Z,1016.63
2019-06-27T00:19:12.809Z,1016.67
2019-06-27T00:20:22.779Z,1016.63
2019-06-27T00:21:32.493Z,1016.69
2019-06-27T00:22:42.190Z,1016.67
2019-06-27T00:23:51.894Z,1016.7
2019-06-27T00:25:01.997Z,1016.69
2019-06-27T00:26:12.030Z,1016.72
2019-06-27T00:27:21.736Z,1016.74
2019-06-27T00:28:31.747Z,1016.77
2019-06-27T00:29:41.721Z,1016.83
2019-06-27T00:30:51.673Z,1016.76
2019-06-27T00:32:01.387Z,1016.82
2019-06-27T00:33:11.086Z,1016.8
2019-06-27T00:34:20.792Z,1016.78
2019-06-27T00:35:30.758Z,1016.84
2019-06-27T00:36:40.261Z,1016.76
2019-06-27T00:37:50.211Z,1016.77
2019-06-27T00:38:59.673Z,1016.78
2019-06-27T00:40:09.395Z,1016.84
2019-06-27T00:41:19.347Z,1016.81
2019-06-27T00:42:29.067Z,1016.85
2019-06-27T00:43:39.035Z,1016.89
2019-06-27T00:44:48.995Z,1016.88
2019-06-27T00:45:58.962Z,1016.9
2019-06-27T00:47:08.756Z,1016.92
2019-06-27T00:48:18.455Z,1016.95
2019-06-27T00:49:28.414Z,1016.87
2019-06-27T00:50:38.366Z,1017.02
2019-06-27T00:51:47.828Z,1016.94
2019-06-27T00:52:57.798Z,1016.94
2019-06-27T00:54:07.257Z,1016.95
2019-06-27T00:55:17.205Z,1016.96
2019-06-27T00:56:26.938Z,1017.03
2019-06-27T00:57:36.889Z,1016.99
2019-06-27T00:58:46.891Z,1017.02
2019-06-27T00:59:56.859Z,1016.98
2019-06-27T01:01:06.815Z,1017.05
2019-06-27T01:02:16.772Z,1017.02
2019-06-27T01:03:26.731Z,1017.03
2019-06-27T01:04:36.681Z,1016.98
2019-06-27T01:05:46.658Z,1016.93
2019-06-27T01:06:56.631Z,1017.07
2019-06-27T01:08:06.589Z,1017.03
2019-06-27T01:09:16.322Z,1017.13
2019-06-27T01:10:26.064Z,1017.12
2019-06-27T01:11:36.026Z,1017.05
2019-06-27T01:12:45.725Z,1017.15
2019-06-27T01:13:55.177Z,1017.21
2019-06-27T01:15:04.673Z,1017.13
2019-06-27T01:16:14.643Z,1017.14
2019-06-27T01:17:24.649Z,1017.19
2019-06-27T01:18:34.228Z,1017.19
2019-06-27T01:19:44.017Z,1017.07
2019-06-27T01:20:53.977Z,1017.17
2019-06-27T01:22:03.936Z,1017.14
2019-06-27T01:23:13.183Z,1017.16
2019-06-27T01:24:22.666Z,1017.18
2019-06-27T01:25:32.363Z,1017.14
2019-06-27T01:26:42.082Z,1017.2
2019-06-27T01:27:52.041Z,1017.23
2019-06-27T01:29:02.097Z,1017.21
2019-06-27T01:30:12.086Z,1017.23
2019-06-27T01:31:21.784Z,1017.26
2019-06-27T01:32:31.518Z,1017.23
2019-06-27T01:33:41.484Z,1017.19
2019-06-27T01:34:51.192Z,1017.24
2019-06-27T01:36:04.781Z,1017.25
2019-06-27T01:37:14.746Z,1017.19
2019-06-27T01:38:24.709Z,1017.28
2019-06-27T01:39:34.423Z,1017.23
2019-06-27T01:40:44.428Z,1017.31
2019-06-27T01:41:54.452Z,1017.25
2019-06-27T01:43:04.204Z,1017.32
2019-06-27T01:44:14.163Z,1017.35
2019-06-27T01:45:24.131Z,1017.34
2019-06-27T01:46:34.105Z,1017.36
2019-06-27T01:47:44.115Z,1017.38
2019-06-27T01:48:54.089Z,1017.36
2019-06-27T01:50:03.816Z,1017.39
2019-06-27T01:51:13.769Z,1017.29
2019-06-27T01:52:23.723Z,1017.39
2019-06-27T01:53:33.687Z,1017.45
2019-06-27T01:54:43.416Z,1017.43
2019-06-27T01:55:53.374Z,1017.41
2019-06-27T01:57:03.075Z,1017.52
2019-06-27T01:58:12.793Z,1017.45
2019-06-27T01:59:22.760Z,1017.5
2019-06-27T02:00:32.469Z,1017.51
2019-06-27T02:01:42.317Z,1017.45
2019-06-27T02:02:52.306Z,1017.5
2019-06-27T02:04:02.290Z,1017.47
2019-06-27T02:05:12.002Z,1017.5
2019-06-27T02:06:21.792Z,1017.66
2019-06-27T02:07:31.760Z,1017.55
2019-06-27T02:08:41.596Z,1017.53
2019-06-27T02:09:51.361Z,1017.55
2019-06-27T02:11:01.067Z,1017.59
2019-06-27T02:12:10.763Z,1017.73
2019-06-27T02:13:20.711Z,1017.65
2019-06-27T02:14:30.463Z,1017.62
2019-06-27T02:15:40.183Z,1017.62
2019-06-27T02:16:50.162Z,1017.65
2019-06-27T02:18:00.135Z,1017.61
2019-06-27T02:19:09.837Z,1017.56
2019-06-27T02:20:19.532Z,1017.61
2019-06-27T02:21:29.252Z,1017.57
2019-06-27T02:22:38.949Z,1017.65
2019-06-27T02:23:48.653Z,1017.63
2019-06-27T02:24:58.370Z,1017.64
2019-06-27T02:26:08.082Z,1017.59
2019-06-27T02:27:17.826Z,1017.61
2019-06-27T02:28:27.780Z,1017.62
2019-06-27T02:29:37.511Z,1017.65
2019-06-27T02:30:47.210Z,1017.61
2019-06-27T02:31:57.272Z,1017.64
2019-06-27T02:33:07.274Z,1017.67
2019-06-27T02:34:17.014Z,1017.64
2019-06-27T02:35:26.995Z,1017.68
2019-06-27T02:36:36.787Z,1017.63
2019-06-27T02:37:46.260Z,1017.72
2019-06-27T02:38:56.274Z,1017.68
2019-06-27T02:40:05.999Z,1017.62
2019-06-27T02:41:15.763Z,1017.7
2019-06-27T02:42:25.745Z,1017.67
2019-06-27T02:43:35.708Z,1017.71
2019-06-27T02:44:45.471Z,1017.68
2019-06-27T02:45:55.450Z,1017.7
2019-06-27T02:47:05.506Z,1017.76
2019-06-27T02:48:15.214Z,1017.74
2019-06-27T02:49:25.277Z,1017.74
2019-06-27T02:50:34.998Z,1017.75
2019-06-27T02:51:44.766Z,1017.75
2019-06-27T02:52:54.541Z,1017.76
2019-06-27T02:54:04.519Z,1017.75
2019-06-27T02:55:14.012Z,1017.8
2019-06-27T02:56:23.750Z,1017.83
2019-06-27T02:57:33.506Z,1017.89
2019-06-27T02:58:43.488Z,1017.83
2019-06-27T02:59:53.458Z,1017.86
2019-06-27T03:01:03.484Z,1017.82
2019-06-27T03:02:13.187Z,1017.84
2019-06-27T03:03:22.913Z,1017.94
2019-06-27T03:04:32.622Z,1017.89
2019-06-27T03:05:42.606Z,1017.92
2019-06-27T03:06:52.639Z,1017.91
2019-06-27T03:08:02.642Z,1017.88
2019-06-27T03:09:12.600Z,1017.84
2019-06-27T03:10:22.339Z,1017.85
2019-06-27T03:11:32.341Z,1017.84
2019-06-27T03:12:42.304Z,1017.89
2019-06-27T03:13:51.786Z,1017.86
2019-06-27T03:15:01.516Z,1017.88
2019-06-27T03:16:11.498Z,1017.83
2019-06-27T03:17:20.965Z,1017.85
2019-06-27T03:18:30.431Z,1017.87
2019-06-27T03:19:40.389Z,1017.84
2019-06-27T03:20:50.354Z,1017.91
2019-06-27T03:22:04.284Z,1017.86
2019-06-27T03:23:15.138Z,1017.86
2019-06-27T03:24:24.855Z,1017.84
2019-06-27T03:25:34.588Z,1017.86
2019-06-27T03:26:44.552Z,1017.91
2019-06-27T03:27:54.509Z,1017.87
2019-06-27T03:29:04.228Z,1017.88
2019-06-27T03:30:13.963Z,1017.94
2019-06-27T03:31:24.064Z,1017.96
2019-06-27T03:32:34.096Z,1017.97
2019-06-27T03:33:43.936Z,1017.95
2019-06-27T03:34:54.210Z,1018
2019-06-27T03:36:04.261Z,1017.97
2019-06-27T03:37:14.305Z,1018.02
2019-06-27T03:38:24.310Z,1018.02
2019-06-27T03:39:34.029Z,1018
2019-06-27T03:40:43.795Z,1018.05
2019-06-27T03:41:53.270Z,1018.05
2019-06-27T03:43:03.256Z,1018.06
2019-06-27T03:44:12.748Z,1018.04
2019-06-27T03:45:22.209Z,1018.03
2019-06-27T03:46:32.192Z,1018.07
2019-06-27T03:47:42.199Z,1018.11
2019-06-27T03:48:52.187Z,1018.08
2019-06-27T03:50:02.269Z,1018.15
2019-06-27T03:51:12.272Z,1018.08
2019-06-27T03:52:22.267Z,1018.05
2019-06-27T03:53:32.257Z,1018.09
2019-06-27T03:54:42.231Z,1018.09
2019-06-27T03:55:51.941Z,1018.12
2019-06-27T03:57:01.907Z,1018.11
2019-06-27T03:58:11.636Z,1018.16
2019-06-27T03:59:21.636Z,1018.14
2019-06-27T04:00:31.612Z,1018.05
2019-06-27T04:01:41.589Z,1018.17
2019-06-27T04:02:51.608Z,1018.18
2019-06-27T04:04:01.606Z,1018.19
2019-06-27T04:05:11.575Z,1018.15
2019-06-27T04:06:21.317Z,1018.2
2019-06-27T04:07:31.074Z,1018.16
2019-06-27T04:08:40.802Z,1018.3
2019-06-27T04:09:50.771Z,1018.24
2019-06-27T04:11:00.268Z,1018.24
2019-06-27T04:12:09.988Z,1018.31
2019-06-27T04:13:19.980Z,1018.24
2019-06-27T04:14:29.735Z,1018.28
2019-06-27T04:15:39.752Z,1018.3
2019-06-27T04:16:49.838Z,1018.31
2019-06-27T04:17:59.818Z,1018.34
2019-06-27T04:19:09.538Z,1018.41
2019-06-27T04:20:19.618Z,1018.33
2019-06-27T04:21:29.592Z,1018.4
2019-06-27T04:22:39.573Z,1018.33
2019-06-27T04:23:49.559Z,1018.42
2019-06-27T04:24:59.522Z,1018.41
2019-06-27T04:26:09.006Z,1018.36
2019-06-27T04:27:18.986Z,1018.38
2019-06-27T04:28:28.949Z,1018.41
2019-06-27T04:29:38.927Z,1018.36
2019-06-27T04:30:48.657Z,1018.4
2019-06-27T04:31:58.664Z,1018.43
2019-06-27T04:33:08.655Z,1018.45
2019-06-27T04:34:20.002Z,1018.32
2019-06-27T04:35:30.049Z,1018.3
2019-06-27T04:36:39.769Z,1018.32
2019-06-27T04:37:49.749Z,1018.29
2019-06-27T04:38:59.489Z,1018.34
2019-06-27T04:40:09.232Z,1018.41
2019-06-27T04:41:19.206Z,1018.33
2019-06-27T04:42:29.184Z,1018.43
2019-06-27T04:43:39.157Z,1018.42
2019-06-27T04:44:48.897Z,1018.37
2019-06-27T04:45:58.916Z,1018.47
2019-06-27T04:47:08.615Z,1018.43
2019-06-27T04:48:18.325Z,1018.41
2019-06-27T04:49:28.321Z,1018.38
2019-06-27T04:50:38.076Z,1018.33
2019-06-27T04:51:48.079Z,1018.39
2019-06-27T04:52:58.115Z,1018.4
2019-06-27T04:54:07.575Z,1018.41
2019-06-27T04:55:16.800Z,1018.35
2019-06-27T04:56:26.764Z,1018.39
2019-06-27T04:57:36.525Z,1018.43
2019-06-27T04:58:46.463Z,1018.39
2019-06-27T04:59:56.185Z,1018.46
2019-06-27T05:01:06.169Z,1018.41
2019-06-27T05:02:16.143Z,1018.43
2019-06-27T05:03:30.864Z,1018.47
2019-06-27T05:04:40.393Z,1018.4
2019-06-27T05:05:50.350Z,1018.45
2019-06-27T05:07:00.055Z,1018.5
2019-06-27T05:08:14.091Z,1018.55
2019-06-27T05:09:24.347Z,1018.43
2019-06-27T05:10:34.407Z,1018.49
2019-06-27T05:11:44.125Z,1018.47
2019-06-27T05:12:54.096Z,1018.49
2019-06-27T05:14:03.858Z,1018.48
2019-06-27T05:15:13.562Z,1018.52
2019-06-27T05:16:23.028Z,1018.43
2019-06-27T05:17:32.991Z,1018.43
2019-06-27T05:18:42.993Z,1018.46
2019-06-27T05:19:52.705Z,1018.47
2019-06-27T05:21:06.115Z,1018.52
2019-06-27T05:22:16.061Z,1018.51
2019-06-27T05:23:26.022Z,1018.44
2019-06-27T05:24:35.995Z,1018.49
2019-06-27T05:25:45.996Z,1018.42
2019-06-27T05:26:55.491Z,1018.42
2019-06-27T05:28:05.473Z,1018.51
2019-06-27T05:29:14.931Z,1018.53
2019-06-27T05:30:24.902Z,1018.51
2019-06-27T05:31:34.626Z,1018.49
2019-06-27T05:32:44.638Z,1018.44
2019-06-27T05:33:54.601Z,1018.52
2019-06-27T05:35:04.613Z,1018.5
2019-06-27T05:36:14.340Z,1018.48
2019-06-27T05:37:24.297Z,1018.46
2019-06-27T05:38:34.232Z,1018.46
2019-06-27T05:39:43.991Z,1018.52
2019-06-27T05:40:53.965Z,1018.51
2019-06-27T05:42:03.414Z,1018.54
2019-06-27T05:43:13.371Z,1018.48
2019-06-27T05:44:22.814Z,1018.48
2019-06-27T05:45:32.572Z,1018.49
2019-06-27T05:46:42.573Z,1018.52
2019-06-27T05:47:52.291Z,1018.49
2019-06-27T05:49:02.277Z,1018.57
2019-06-27T05:50:12.228Z,1018.5
2019-06-27T05:51:22.231Z,1018.48
2019-06-27T05:52:32.290Z,1018.51
2019-06-27T05:53:45.412Z,1018.56
2019-06-27T05:54:55.697Z,1018.52
2019-06-27T05:56:05.695Z,1018.53
2019-06-27T05:57:15.410Z,1018.54
2019-06-27T05:58:25.423Z,1018.54
2019-06-27T05:59:35.529Z,1018.59
2019-06-27T06:00:45.265Z,1018.6
2019-06-27T06:01:55.312Z,1018.61
2019-06-27T06:03:05.295Z,1018.67
2019-06-27T06:04:15.257Z,1018.68
2019-06-27T06:05:29.218Z,1018.6
2019-06-27T06:06:38.919Z,1018.6
2019-06-27T06:07:48.885Z,1018.64
2019-06-27T06:08:58.853Z,1018.64
2019-06-27T06:10:08.805Z,1018.66
2019-06-27T06:11:18.767Z,1018.67
2019-06-27T06:12:28.814Z,1018.67
2019-06-27T06:13:38.541Z,1018.65
2019-06-27T06:14:48.525Z,1018.62
2019-06-27T06:16:00.953Z,1018.65
2019-06-27T06:17:10.866Z,1018.63
2019-06-27T06:18:20.817Z,1018.69
2019-06-27T06:19:30.776Z,1018.63
2019-06-27T06:20:40.491Z,1018.64
2019-06-27T06:21:50.222Z,1018.62
2019-06-27T06:23:00.190Z,1018.63
2019-06-27T06:24:10.157Z,1018.63
2019-06-27T06:25:19.891Z,1018.64
2019-06-27T06:26:29.655Z,1018.63
2019-06-27T06:27:39.621Z,1018.61
2019-06-27T06:28:49.356Z,1018.67
2019-06-27T06:29:59.341Z,1018.63
2019-06-27T06:31:09.085Z,1018.65
2019-06-27T06:32:19.114Z,1018.64
2019-06-27T06:33:28.833Z,1018.68
2019-06-27T06:34:38.337Z,1018.64
2019-06-27T06:35:48.295Z,1018.66
2019-06-27T06:36:58.265Z,1018.67
2019-06-27T06:38:11.004Z,1018.55
2019-06-27T06:39:21.252Z,1018.64
2019-06-27T06:40:30.719Z,1018.67
2019-06-27T06:41:40.433Z,1018.64
2019-06-27T06:42:50.525Z,1018.65
2019-06-27T06:44:06.859Z,1018.7
2019-06-27T06:45:16.921Z,1018.62
2019-06-27T06:46:26.896Z,1018.68
2019-06-27T06:47:36.870Z,1018.7
2019-06-27T06:48:46.830Z,1018.71
2019-06-27T06:49:56.563Z,1018.6
2019-06-27T06:51:06.537Z,1018.66
2019-06-27T06:52:16.296Z,1018.69
2019-06-27T06:53:26.312Z,1018.71
2019-06-27T06:54:36.033Z,1018.71
2019-06-27T06:55:45.995Z,1018.72
2019-06-27T06:56:55.710Z,1018.66
2019-06-27T06:58:05.595Z,1018.63
2019-06-27T06:59:15.596Z,1018.66
2019-06-27T07:00:25.575Z,1018.7
2019-06-27T07:01:35.644Z,1018.76
2019-06-27T07:02:48.260Z,1018.72
2019-06-27T07:03:58.331Z,1018.78
2019-06-27T07:05:08.326Z,1018.78
2019-06-27T07:06:18.573Z,1018.71
2019-06-27T07:07:28.531Z,1018.72
2019-06-27T07:08:38.537Z,1018.74
2019-06-27T07:09:48.256Z,1018.76
2019-06-27T07:10:58.217Z,1018.69
2019-06-27T07:12:08.246Z,1018.68
2019-06-27T07:13:18.039Z,1018.68
2019-06-27T07:14:27.765Z,1018.69
2019-06-27T07:15:37.487Z,1018.74
2019-06-27T07:16:47.459Z,1018.67
2019-06-27T07:17:57.509Z,1018.79
2019-06-27T07:19:07.226Z,1018.58
2019-06-27T07:20:17.188Z,1018.71
2019-06-27T07:21:27.206Z,1018.72
2019-06-27T07:22:37.194Z,1018.71
2019-06-27T07:23:47.146Z,1018.78
2019-06-27T07:24:57.283Z,1018.73
2019-06-27T07:26:07.399Z,1018.72
2019-06-27T07:27:17.126Z,1018.76
2019-06-27T07:28:26.611Z,1018.83
2019-06-27T07:29:36.590Z,1018.86
2019-06-27T07:30:46.602Z,1018.83
2019-06-27T07:31:56.590Z,1018.82
2019-06-27T07:33:09.250Z,1018.86
2019-06-27T07:34:19.909Z,1018.83
2019-06-27T07:35:29.888Z,1018.81
2019-06-27T07:36:39.600Z,1018.8
2019-06-27T07:37:49.333Z,1018.87
2019-06-27T07:38:59.368Z,1018.8
2019-06-27T07:40:09.264Z,1018.77
2019-06-27T07:41:19.279Z,1018.88
2019-06-27T07:42:29.262Z,1018.86
2019-06-27T07:43:38.751Z,1018.82
2019-06-27T07:44:48.733Z,1018.88
2019-06-27T07:45:58.726Z,1018.99
2019-06-27T07:47:25.114Z,1018.9
2019-06-27T07:48:34.898Z,1018.88
2019-06-27T07:49:44.840Z,1018.89
2019-06-27T07:50:54.790Z,1018.85
2019-06-27T07:52:04.745Z,1018.95
2019-06-27T07:53:14.209Z,1018.9
2019-06-27T07:54:23.935Z,1018.88
2019-06-27T07:55:33.904Z,1018.87
2019-06-27T07:56:46.282Z,1018.87
2019-06-27T07:57:56.368Z,1018.87
2019-06-27T07:59:06.316Z,1018.9
2019-06-27T08:00:16.324Z,1018.88
2019-06-27T08:01:34.777Z,1018.9
2019-06-27T08:02:45.279Z,1018.95
2019-06-27T08:03:55.060Z,1018.87
2019-06-27T08:05:04.797Z,1018.94
2019-06-27T08:06:15.126Z,1018.99
2019-06-27T08:07:24.834Z,1018.87
2019-06-27T08:08:34.562Z,1018.85
2019-06-27T08:09:44.527Z,1018.84
2019-06-27T08:10:54.311Z,1018.84
2019-06-27T08:12:04.029Z,1018.9
2019-06-27T08:13:13.990Z,1018.89
2019-06-27T08:14:24.029Z,1018.9
2019-06-27T08:15:34.102Z,1018.81
2019-06-27T08:16:44.134Z,1018.76
2019-06-27T08:17:54.162Z,1018.76
2019-06-27T08:19:03.888Z,1018.75
2019-06-27T08:20:13.867Z,1018.81
2019-06-27T08:21:23.582Z,1018.85
2019-06-27T08:22:33.579Z,1018.85
2019-06-27T08:23:43.554Z,1018.9
2019-06-27T08:24:53.539Z,1018.88
2019-06-27T08:26:03.511Z,1018.91
2019-06-27T08:27:13.504Z,1018.86
2019-06-27T08:28:23.210Z,1018.88
2019-06-27T08:29:32.929Z,1018.88
2019-06-27T08:30:43.029Z,1018.94
2019-06-27T08:31:52.760Z,1018.88
2019-06-27T08:33:02.849Z,1018.92
2019-06-27T08:34:12.828Z,1018.88
2019-06-27T08:35:22.838Z,1018.88
2019-06-27T08:36:36.456Z,1018.87
2019-06-27T08:37:46.804Z,1018.9
2019-06-27T08:38:56.670Z,1018.93
2019-06-27T08:40:06.426Z,1018.84
2019-06-27T08:41:16.404Z,1018.93
2019-06-27T08:42:26.364Z,1018.81
2019-06-27T08:43:35.847Z,1018.78
2019-06-27T08:44:45.834Z,1018.82
2019-06-27T08:45:55.811Z,1018.92
2019-06-27T08:47:05.573Z,1018.85
2019-06-27T08:48:15.568Z,1018.73
2019-06-27T08:49:25.028Z,1018.93
2019-06-27T08:50:34.758Z,1018.85
2019-06-27T08:51:44.737Z,1018.86
2019-06-27T08:52:54.478Z,1018.94
2019-06-27T08:54:06.767Z,1018.8
2019-06-27T08:55:16.287Z,1018.87
2019-06-27T08:56:26.086Z,1018.84
2019-06-27T08:57:35.845Z,1018.84
2019-06-27T08:58:45.863Z,1018.8
2019-06-27T08:59:55.846Z,1018.74
2019-06-27T09:01:05.868Z,1018.74
2019-06-27T09:02:15.671Z,1018.76
2019-06-27T09:03:25.654Z,1018.72
2019-06-27T09:04:35.401Z,1018.71
2019-06-27T09:05:45.374Z,1018.73
2019-06-27T09:06:55.406Z,1018.68
2019-06-27T09:08:04.868Z,1018.68
2019-06-27T09:09:14.577Z,1018.64
2019-06-27T09:10:24.329Z,1018.61
2019-06-27T09:11:37.885Z,1018.61
2019-06-27T09:12:48.274Z,1018.69
2019-06-27T09:13:58.050Z,1018.66
2019-06-27T09:15:08.046Z,1018.59
2019-06-27T09:16:18.012Z,1018.53
2019-06-27T09:17:28.090Z,1018.56
2019-06-27T09:18:38.085Z,1018.5
2019-06-27T09:19:48.104Z,1018.64
2019-06-27T09:20:57.837Z,1018.57
2019-06-27T09:22:07.880Z,1018.53
2019-06-27T09:23:17.605Z,1018.48
2019-06-27T09:24:27.558Z,1018.48
2019-06-27T09:25:37.268Z,1018.52
2019-06-27T09:26:47.081Z,1018.59
2019-06-27T09:27:57.076Z,1018.47
2019-06-27T09:29:07.046Z,1018.5
2019-06-27T09:30:16.748Z,1018.52
2019-06-27T09:31:26.723Z,1018.39
2019-06-27T09:32:36.697Z,1018.55
2019-06-27T09:33:46.418Z,1018.56
2019-06-27T09:34:56.171Z,1018.48
2019-06-27T09:36:06.134Z,1018.48
2019-06-27T09:37:16.114Z,1018.51
2019-06-27T09:38:25.582Z,1018.57
2019-06-27T09:39:35.561Z,1018.55
2019-06-27T09:40:45.543Z,1018.58
2019-06-27T09:41:55.254Z,1018.6
2019-06-27T09:43:05.201Z,1018.65
2019-06-27T09:44:14.917Z,1018.7
2019-06-27T09:45:24.542Z,1018.63
2019-06-27T09:46:34.629Z,1018.63
2019-06-27T09:47:44.626Z,1018.64
2019-06-27T09:48:54.593Z,1018.62
2019-06-27T09:50:04.572Z,1018.66
2019-06-27T09:51:14.553Z,1018.67
2019-06-27T09:52:24.308Z,1018.65
2019-06-27T09:53:34.021Z,1018.6
2019-06-27T09:54:43.988Z,1018.63
2019-06-27T09:55:53.701Z,1018.67
2019-06-27T09:57:03.464Z,1018.64
2019-06-27T09:58:13.440Z,1018.58
2019-06-27T09:59:23.447Z,1018.5
2019-06-27T10:00:33.157Z,1018.45
2019-06-27T10:01:43.123Z,1018.57
2019-06-27T10:02:53.321Z,1018.51
2019-06-27T10:04:03.287Z,1018.52
2019-06-27T10:05:13.290Z,1018.54
2019-06-27T10:06:26.157Z,1018.66
2019-06-27T10:07:36.061Z,1018.58
2019-06-27T10:08:46.062Z,1018.55
2019-06-27T10:09:56.064Z,1018.52
2019-06-27T10:11:06.086Z,1018.54
2019-06-27T10:12:15.937Z,1018.56
2019-06-27T10:13:41.388Z,1018.59
2019-06-27T10:14:51.348Z,1018.64
2019-06-27T10:16:01.376Z,1018.59
2019-06-27T10:17:11.356Z,1018.59
2019-06-27T10:18:21.085Z,1018.56
2019-06-27T10:19:31.173Z,1018.64
2019-06-27T10:20:40.908Z,1018.57
2019-06-27T10:21:50.923Z,1018.6
2019-06-27T10:23:00.941Z,1018.65
2019-06-27T10:24:10.442Z,1018.73
2019-06-27T10:25:20.419Z,1018.56
2019-06-27T10:26:30.709Z,1018.51
2019-06-27T10:27:40.424Z,1018.61
2019-06-27T10:28:50.401Z,1018.61
2019-06-27T10:30:00.434Z,1018.51
2019-06-27T10:31:10.580Z,1018.55
2019-06-27T10:32:20.491Z,1018.62
2019-06-27T10:33:29.960Z,1018.59
2019-06-27T10:34:39.922Z,1018.64
2019-06-27T10:35:49.887Z,1018.61
2019-06-27T10:36:59.901Z,1018.74
2019-06-27T10:38:09.688Z,1018.57
2019-06-27T10:39:19.412Z,1018.63
2019-06-27T10:40:29.381Z,1018.61
2019-06-27T10:41:39.367Z,1018.68
2019-06-27T10:42:49.114Z,1018.66
2019-06-27T10:43:59.088Z,1018.62
2019-06-27T10:45:09.054Z,1018.57
2019-06-27T10:46:19.021Z,1018.56
2019-06-27T10:47:28.470Z,1018.6
2019-06-27T10:48:37.758Z,1018.65
2019-06-27T10:49:47.506Z,1018.73
2019-06-27T10:50:57.543Z,1018.64
2019-06-27T10:52:08.140Z,1018.66
2019-06-27T10:53:18.099Z,1018.71
2019-06-27T10:54:27.848Z,1018.7
2019-06-27T10:55:37.558Z,1018.74
2019-06-27T10:56:47.047Z,1018.62
2019-06-27T10:57:57.037Z,1018.56
2019-06-27T10:59:07.011Z,1018.49
2019-06-27T11:00:16.996Z,1018.57
2019-06-27T11:01:27.001Z,1018.54
2019-06-27T11:02:36.457Z,1018.59
2019-06-27T11:03:45.933Z,1018.52
2019-06-27T11:04:55.885Z,1018.56
2019-06-27T11:06:05.620Z,1018.56
2019-06-27T11:07:15.327Z,1018.53
2019-06-27T11:08:25.040Z,1018.58
2019-06-27T11:09:34.807Z,1018.52
2019-06-27T11:10:44.800Z,1018.56
2019-06-27T11:11:54.798Z,1018.47
2019-06-27T11:13:04.530Z,1018.54
2019-06-27T11:14:14.505Z,1018.59
2019-06-27T11:15:26.657Z,1018.51
2019-06-27T11:16:36.395Z,1018.49
2019-06-27T11:17:46.108Z,1018.57
2019-06-27T11:18:55.644Z,1018.43
2019-06-27T11:20:05.865Z,1018.45
2019-06-27T11:21:18.337Z,1018.45
2019-06-27T11:22:28.313Z,1018.46
2019-06-27T11:23:38.332Z,1018.41
2019-06-27T11:24:48.351Z,1018.41
2019-06-27T11:25:58.358Z,1018.48
2019-06-27T11:27:12.218Z,1018.47
2019-06-27T11:28:22.276Z,1018.42
2019-06-27T11:29:31.757Z,1018.33
2019-06-27T11:30:41.732Z,1018.35
2019-06-27T11:31:51.500Z,1018.41
2019-06-27T11:33:01.603Z,1018.31
2019-06-27T11:34:11.593Z,1018.24
2019-06-27T11:35:24.629Z,1018.39
2019-06-27T11:36:33.879Z,1018.47
2019-06-27T11:37:47.067Z,1018.37
2019-06-27T11:38:56.609Z,1018.38
2019-06-27T11:40:06.750Z,1018.39
2019-06-27T11:41:19.853Z,1018.37
2019-06-27T11:42:30.051Z,1018.28
2019-06-27T11:43:39.864Z,1018.2
2019-06-27T11:44:49.852Z,1018.24
2019-06-27T11:45:59.831Z,1018.24
2019-06-27T11:47:11.790Z,1018.2
2019-06-27T11:48:21.754Z,1018.25
2019-06-27T11:49:31.455Z,1018.28
2019-06-27T11:50:41.414Z,1018.2
2019-06-27T11:51:51.761Z,1018.14
2019-06-27T11:53:01.885Z,1018.22
2019-06-27T11:54:11.629Z,1018.21
2019-06-27T11:55:21.365Z,1018.24
2019-06-27T11:56:31.117Z,1018.17
2019-06-27T11:57:40.582Z,1018.13
2019-06-27T11:58:50.565Z,1018.18
2019-06-27T12:00:00.302Z,1018.07
2019-06-27T12:01:10.280Z,1018.04
2019-06-27T12:02:20.273Z,1018.11
2019-06-27T12:03:30.249Z,1018.05
2019-06-27T12:04:55.877Z,1018.01
2019-06-27T12:06:05.833Z,1018.01
2019-06-27T12:07:15.552Z,1018.04
2019-06-27T12:08:25.280Z,1018.17
2019-06-27T12:09:35.002Z,1018.09
2019-06-27T12:10:45.005Z,1018.02
2019-06-27T12:11:54.998Z,1017.99
2019-06-27T12:13:04.782Z,1018.02
2019-06-27T12:14:14.515Z,1018.01
2019-06-27T12:15:24.537Z,1017.99
2019-06-27T12:16:34.571Z,1018.03
2019-06-27T12:17:44.573Z,1018.03
2019-06-27T12:18:54.327Z,1017.98
2019-06-27T12:20:04.291Z,1018.06
2019-06-27T12:21:14.286Z,1017.99
2019-06-27T12:22:24.007Z,1018.11
2019-06-27T12:23:33.739Z,1018.02
2019-06-27T12:24:43.464Z,1018
2019-06-27T12:25:52.958Z,1017.97
2019-06-27T12:27:02.712Z,1017.92
2019-06-27T12:28:12.447Z,1017.9
2019-06-27T12:29:22.170Z,1017.87
2019-06-27T12:30:32.165Z,1017.99
2019-06-27T12:31:42.183Z,1017.86
2019-06-27T12:32:54.637Z,1017.81
2019-06-27T12:34:07.106Z,1017.81
2019-06-27T12:35:17.365Z,1017.77
2019-06-27T12:36:27.360Z,1017.8
2019-06-27T12:37:39.638Z,1017.8
2019-06-27T12:38:49.782Z,1017.78
2019-06-27T12:39:59.253Z,1017.8
2019-06-27T12:41:09.250Z,1017.84
2019-06-27T12:42:31.778Z,1017.88
2019-06-27T12:43:42.468Z,1017.88
2019-06-27T12:44:52.427Z,1017.86
2019-06-27T12:46:02.139Z,1017.88
2019-06-27T12:47:11.848Z,1017.8
2019-06-27T12:48:21.558Z,1017.77
2019-06-27T12:49:49.971Z,1017.79
2019-06-27T12:51:10.364Z,1017.79
2019-06-27T12:52:20.351Z,1017.81
2019-06-27T12:53:30.320Z,1017.81
2019-06-27T12:54:40.324Z,1017.76
2019-06-27T12:55:50.363Z,1017.68
2019-06-27T12:57:00.191Z,1017.56
2019-06-27T12:58:10.156Z,1017.64
2019-06-27T12:59:19.927Z,1017.56
2019-06-27T13:00:29.907Z,1017.62
2019-06-27T13:01:39.999Z,1017.65
2019-06-27T13:02:49.995Z,1017.6
2019-06-27T13:04:00.053Z,1017.63
2019-06-27T13:05:26.063Z,1017.59
2019-06-27T13:06:36.036Z,1017.54
2019-06-27T13:07:45.745Z,1017.51
2019-06-27T13:08:55.748Z,1017.44
2019-06-27T13:10:05.797Z,1017.42
2019-06-27T13:11:15.838Z,1017.54
2019-06-27T13:12:25.858Z,1017.47
2019-06-27T13:13:35.823Z,1017.5
2019-06-27T13:14:45.541Z,1017.47
2019-06-27T13:15:55.605Z,1017.47
2019-06-27T13:17:05.622Z,1017.39
2019-06-27T13:18:15.594Z,1017.44
2019-06-27T13:19:25.307Z,1017.39
2019-06-27T13:20:35.050Z,1017.5
2019-06-27T13:22:01.817Z,1017.38
2019-06-27T13:23:11.794Z,1017.36
2019-06-27T13:24:21.904Z,1017.35
2019-06-27T13:25:34.224Z,1017.29
2019-06-27T13:26:44.430Z,1017.13
2019-06-27T13:27:54.183Z,1017.12
2019-06-27T13:29:04.186Z,1017.34
2019-06-27T13:30:13.915Z,1017.38
2019-06-27T13:31:23.882Z,1017.25
2019-06-27T13:32:33.884Z,1017.27
2019-06-27T13:33:43.886Z,1017.3
2019-06-27T13:34:53.910Z,1017.28
2019-06-27T13:36:03.921Z,1017.29
2019-06-27T13:37:13.930Z,1017.38
2019-06-27T13:38:23.950Z,1017.33
2019-06-27T13:39:33.969Z,1017.26
2019-06-27T13:40:43.733Z,1017.2
2019-06-27T13:41:53.235Z,1017.24
2019-06-27T13:43:02.731Z,1017.23
2019-06-27T13:44:12.703Z,1017.29
2019-06-27T13:45:25.474Z,1017.19
2019-06-27T13:46:36.439Z,1017.19
2019-06-27T13:47:46.220Z,1017.2
2019-06-27T13:48:56.267Z,1017.24
2019-06-27T13:50:05.976Z,1017.16
2019-06-27T13:51:15.670Z,1017.2
2019-06-27T13:52:25.145Z,1017.12
2019-06-27T13:53:35.139Z,1017.15
2019-06-27T13:54:45.107Z,1017.2
2019-06-27T13:55:55.103Z,1017.2
2019-06-27T13:57:05.182Z,1017.16
2019-06-27T13:58:15.262Z,1017.17
2019-06-27T13:59:24.974Z,1017.14
2019-06-27T14:00:34.687Z,1017.15
2019-06-27T14:01:44.766Z,1017.17
2019-06-27T14:02:54.738Z,1017.08
2019-06-27T14:04:04.497Z,1017.11
2019-06-27T14:05:14.476Z,1017.2
2019-06-27T14:06:24.456Z,1017.05
2019-06-27T14:07:34.452Z,1017.12
2019-06-27T14:08:44.479Z,1017.03
2019-06-27T14:09:57.210Z,1017.12
2019-06-27T14:11:07.663Z,1017.1
2019-06-27T14:12:17.374Z,1017.11